createdAt,value
2022-10-03T00:01:27.269Z,2.70
2022-10-03T00:04:10.711Z,3.13
2022-10-03T00:06:52.022Z,3.00
2022-10-03T00:09:36.916Z,2.90
2022-10-03T00:12:20.105Z,2.80
2022-10-03T00:14:57.925Z,2.70
2022-10-03T00:17:32.121Z,2.80
2022-10-03T00:20:07.947Z,2.87
2022-10-03T00:22:45.468Z,2.90
2022-10-03T00:25:43.357Z,3.00
2022-10-03T00:28:29.855Z,2.93
2022-10-03T00:31:12.357Z,3.23
2022-10-03T00:33:54.160Z,2.90
2022-10-03T00:36:35.186Z,2.93
2022-10-03T00:39:37.553Z,2.80
2022-10-03T00:42:43.763Z,2.70
2022-10-03T00:45:50.991Z,3.00
2022-10-03T00:48:48.615Z,3.17
2022-10-03T00:51:42.683Z,3.20
2022-10-03T00:54:30.399Z,3.10
2022-10-03T00:57:22.212Z,2.80
2022-10-03T01:00:15.830Z,3.00
2022-10-03T01:02:59.982Z,2.70
2022-10-03T01:05:40.642Z,2.70
2022-10-03T01:08:40.972Z,2.83
2022-10-03T01:11:21.831Z,3.23
2022-10-03T01:14:00.649Z,3.40
2022-10-03T01:16:40.320Z,3.20
2022-10-03T01:19:28.830Z,3.00
2022-10-03T01:22:17.959Z,3.10
2022-10-03T01:24:59.368Z,3.30
2022-10-03T01:27:59.900Z,3.00
2022-10-03T01:30:35.679Z,2.90
2022-10-03T01:33:10.683Z,2.87
2022-10-03T01:35:53.881Z,2.93
2022-10-03T01:38:29.277Z,3.47
2022-10-03T01:41:03.209Z,3.20
2022-10-03T01:43:38.491Z,3.17
2022-10-03T01:46:18.427Z,3.00
2022-10-03T01:48:55.216Z,2.97
2022-10-03T01:51:28.651Z,2.80
2022-10-03T01:54:09.145Z,3.40
2022-10-03T01:56:43.058Z,3.07
2022-10-03T01:59:15.977Z,3.00
2022-10-03T02:01:54.194Z,3.00
2022-10-03T02:04:37.517Z,3.00
2022-10-03T02:07:21.673Z,2.60
2022-10-03T02:10:03.705Z,2.40
2022-10-03T02:12:36.647Z,2.80
2022-10-03T02:15:17.313Z,2.67
2022-10-03T02:17:55.941Z,2.70
2022-10-03T02:20:36.137Z,2.50
2022-10-03T02:23:21.699Z,2.70
2022-10-03T02:26:00.419Z,2.73
2022-10-03T02:29:00.654Z,3.00
2022-10-03T02:32:01.335Z,3.00
2022-10-03T02:35:20.773Z,2.90
2022-10-03T02:38:11.109Z,2.80
2022-10-03T02:41:13.834Z,3.00
2022-10-03T02:44:17.332Z,2.93
2022-10-03T02:47:23.229Z,2.90
2022-10-03T02:50:28.067Z,3.17
2022-10-03T02:53:31.430Z,2.80
2022-10-03T02:56:37.725Z,2.70
2022-10-03T02:59:50.773Z,3.10
2022-10-03T03:02:45.842Z,3.10
2022-10-03T03:05:26.896Z,3.13
2022-10-03T03:08:33.862Z,3.50
2022-10-03T03:11:23.866Z,3.07
2022-10-03T03:14:37.958Z,3.47
2022-10-03T03:17:31.300Z,2.90
2022-10-03T03:20:22.957Z,3.80
2022-10-03T03:23:10.557Z,3.30
2022-10-03T03:26:09.330Z,3.33
2022-10-03T03:28:46.986Z,3.00
2022-10-03T03:31:18.934Z,3.10
2022-10-03T03:33:57.348Z,3.20
2022-10-03T03:36:38.202Z,2.77
2022-10-03T03:39:20.582Z,2.83
2022-10-03T03:42:03.639Z,2.90
2022-10-03T03:45:10.007Z,2.87
2022-10-03T03:47:51.556Z,2.97
2022-10-03T03:50:52.983Z,2.97
2022-10-03T03:54:06.117Z,2.90
2022-10-03T03:56:51.152Z,2.90
2022-10-03T03:59:38.110Z,2.90
2022-10-03T04:02:27.089Z,2.93
2022-10-03T04:05:13.549Z,2.80
2022-10-03T04:07:54.224Z,2.80
2022-10-03T04:10:38.922Z,3.10
2022-10-03T04:13:42.333Z,2.50
2022-10-03T04:16:45.498Z,3.17
2022-10-03T04:19:20.246Z,2.77
2022-10-03T04:22:01.740Z,2.73
2022-10-03T04:24:45.113Z,3.00
2022-10-03T04:27:39.834Z,2.60
2022-10-03T04:30:15.312Z,2.57
2022-10-03T04:33:07.378Z,2.50
2022-10-03T04:36:12.355Z,2.80
2022-10-03T04:38:49.943Z,2.70
2022-10-03T04:41:28.789Z,3.00
2022-10-03T04:44:08.735Z,2.67
2022-10-03T04:46:44.653Z,2.60
2022-10-03T04:49:19.900Z,2.93
2022-10-03T04:51:58.465Z,2.70
2022-10-03T04:54:34.636Z,2.70
2022-10-03T04:57:12.559Z,2.70
2022-10-03T04:59:50.326Z,2.80
2022-10-03T05:02:29.842Z,3.10
2022-10-03T05:05:33.095Z,2.90
2022-10-03T05:08:14.033Z,3.27
2022-10-03T05:10:53.826Z,2.77
2022-10-03T05:13:39.134Z,3.00
2022-10-03T05:16:17.775Z,3.20
2022-10-03T05:18:54.326Z,2.70
2022-10-03T05:21:35.179Z,2.97
2022-10-03T05:24:16.401Z,3.77
2022-10-03T05:26:53.866Z,2.80
2022-10-03T05:29:32.745Z,3.23
2022-10-03T05:32:13.969Z,3.50
2022-10-03T05:35:01.589Z,3.40
2022-10-03T05:37:47.422Z,3.10
2022-10-03T05:40:19.961Z,3.30
2022-10-03T05:43:03.849Z,3.57
2022-10-03T05:45:48.649Z,4.23
2022-10-03T05:48:31.927Z,4.20
2022-10-03T05:51:14.417Z,4.20
2022-10-03T05:54:19.699Z,4.60
2022-10-03T05:57:16.558Z,4.03
2022-10-03T06:00:06.625Z,4.20
2022-10-03T06:03:00.495Z,4.23
2022-10-03T06:05:34.256Z,4.33
2022-10-03T06:08:35.474Z,4.27
2022-10-03T06:11:19.964Z,4.30
2022-10-03T06:14:09.202Z,4.73
2022-10-03T06:16:46.742Z,4.30
2022-10-03T06:19:39.297Z,5.03
2022-10-03T06:22:47.139Z,4.10
2022-10-03T06:26:08.338Z,4.10
2022-10-03T06:29:05.570Z,4.53
2022-10-03T06:32:09.637Z,4.60
2022-10-03T06:35:15.829Z,4.60
2022-10-03T06:38:18.829Z,4.43
2022-10-03T06:41:14.865Z,5.20
2022-10-03T06:43:58.572Z,5.10
2022-10-03T06:47:01.994Z,5.27
2022-10-03T06:49:46.710Z,5.20
2022-10-03T06:52:45.359Z,4.20
2022-10-03T06:55:56.350Z,4.50
2022-10-03T06:58:55.475Z,4.50
2022-10-03T07:01:44.937Z,5.37
2022-10-03T07:04:45.743Z,4.23
2022-10-03T07:07:45.885Z,4.27
2022-10-03T07:10:46.452Z,4.10
2022-10-03T07:13:50.885Z,4.40
2022-10-03T07:17:05.811Z,3.73
2022-10-03T07:19:57.467Z,3.60
2022-10-03T07:23:01.063Z,4.50
2022-10-03T07:26:05.252Z,3.57
2022-10-03T07:29:17.981Z,3.73
2022-10-03T07:32:15.825Z,4.13
2022-10-03T07:35:12.038Z,3.77
2022-10-03T07:38:18.069Z,4.07
2022-10-03T07:41:12.280Z,3.90
2022-10-03T07:44:04.195Z,3.60
2022-10-03T07:47:30.379Z,4.50
2022-10-03T07:50:33.258Z,4.10
2022-10-03T07:53:17.405Z,3.70
2022-10-03T07:56:16.303Z,4.40
2022-10-03T07:59:05.556Z,3.40
2022-10-03T08:01:45.793Z,3.93
2022-10-03T08:05:06.841Z,3.53
2022-10-03T08:08:19.213Z,4.20
2022-10-03T08:11:26.067Z,3.80
2022-10-03T08:14:11.584Z,3.90
2022-10-03T08:17:03.059Z,3.70
2022-10-03T08:19:52.517Z,3.80
2022-10-03T08:22:46.107Z,3.60
2022-10-03T08:25:45.085Z,3.67
2022-10-03T08:28:55.193Z,3.80
2022-10-03T08:32:02.381Z,4.50
2022-10-03T08:35:22.096Z,5.50
2022-10-03T08:38:27.945Z,5.30
2022-10-03T08:41:33.867Z,4.80
2022-10-03T08:44:37.198Z,6.73
2022-10-03T08:47:27.892Z,6.10
2022-10-03T08:50:34.493Z,5.83
2022-10-03T08:53:37.164Z,4.20
2022-10-03T08:56:11.143Z,4.97
2022-10-03T08:59:10.604Z,4.17
2022-10-03T09:02:01.436Z,3.80
2022-10-03T09:05:24.210Z,3.43
2022-10-03T09:08:35.678Z,3.93
2022-10-03T09:11:33.483Z,3.60
2022-10-03T09:14:31.857Z,4.50
2022-10-03T09:17:35.065Z,4.60
2022-10-03T09:20:48.933Z,4.27
2022-10-03T09:24:14.370Z,4.20
2022-10-03T09:27:15.542Z,3.67
2022-10-03T09:30:10.757Z,3.93
2022-10-03T09:32:58.667Z,3.60
2022-10-03T09:35:57.415Z,4.10
2022-10-03T09:38:52.097Z,3.60
2022-10-03T09:42:01.954Z,3.50
2022-10-03T09:45:13.429Z,3.27
2022-10-03T09:48:21.693Z,3.47
2022-10-03T09:51:18.392Z,3.80
2022-10-03T09:54:36.197Z,3.60
2022-10-03T09:57:22.786Z,3.60
2022-10-03T10:00:10.377Z,3.47
2022-10-03T10:03:13.821Z,4.27
2022-10-03T10:06:02.253Z,3.40
2022-10-03T10:08:45.307Z,4.73
2022-10-03T10:11:34.355Z,4.40
2022-10-03T10:14:35.909Z,5.00
2022-10-03T10:17:39.143Z,5.03
2022-10-03T10:20:25.114Z,5.30
2022-10-03T10:23:31.148Z,4.00
2022-10-03T10:26:54.473Z,3.97
2022-10-03T10:29:37.307Z,4.13
2022-10-03T10:32:43.950Z,4.13
2022-10-03T10:36:07.544Z,4.13
2022-10-03T10:38:59.273Z,4.17
2022-10-03T10:42:09.298Z,3.67
2022-10-03T10:45:10.937Z,3.83
2022-10-03T10:48:17.218Z,3.60
2022-10-03T10:51:25.058Z,3.63
2022-10-03T10:54:34.318Z,4.00
2022-10-03T10:57:23.080Z,3.63
2022-10-03T11:00:20.214Z,3.70
2022-10-03T11:03:29.895Z,3.40
2022-10-03T11:06:43.046Z,3.10
2022-10-03T11:09:35.024Z,3.70
2022-10-03T11:12:41.993Z,3.63
2022-10-03T11:15:47.890Z,4.03
2022-10-03T11:18:48.092Z,3.43
2022-10-03T11:22:04.567Z,3.80
2022-10-03T11:25:21.033Z,4.17
2022-10-03T11:28:27.276Z,4.03
2022-10-03T11:31:20.819Z,4.33
2022-10-03T11:34:38.373Z,4.80
2022-10-03T11:37:26.135Z,4.40
2022-10-03T11:40:07.386Z,5.50
2022-10-03T11:42:50.512Z,4.77
2022-10-03T11:45:27.379Z,3.80
2022-10-03T11:48:21.229Z,4.40
2022-10-03T11:50:55.099Z,4.80
2022-10-03T11:53:35.700Z,4.07
2022-10-03T11:56:21.270Z,3.87
2022-10-03T11:59:15.912Z,3.90
2022-10-03T12:01:58.572Z,4.30
2022-10-03T12:04:34.576Z,4.20
2022-10-03T12:07:28.438Z,4.57
2022-10-03T12:10:04.594Z,4.17
2022-10-03T12:12:42.340Z,4.17
2022-10-03T12:15:34.507Z,3.53
2022-10-03T12:18:12.851Z,3.90
2022-10-03T12:21:04.566Z,3.80
2022-10-03T12:23:58.077Z,4.47
2022-10-03T12:26:42.412Z,4.20
2022-10-03T12:29:14.321Z,4.73
2022-10-03T12:31:50.836Z,4.00
2022-10-03T12:34:41.582Z,4.77
2022-10-03T12:37:40.262Z,4.47
2022-10-03T12:40:17.873Z,3.87
2022-10-03T12:42:56.696Z,4.80
2022-10-03T12:45:31.536Z,3.70
2022-10-03T12:48:11.865Z,3.57
2022-10-03T12:50:47.186Z,3.57
2022-10-03T12:53:41.916Z,3.50
2022-10-03T12:56:18.941Z,4.43
2022-10-03T12:58:59.041Z,3.67
2022-10-03T13:01:42.608Z,3.40
2022-10-03T13:04:24.234Z,3.93
2022-10-03T13:07:09.403Z,3.57
2022-10-03T13:10:18.442Z,3.63
2022-10-03T13:12:53.103Z,3.50
2022-10-03T13:15:50.218Z,3.07
2022-10-03T13:18:30.992Z,3.17
2022-10-03T13:21:33.468Z,3.30
2022-10-03T13:24:04.659Z,3.50
2022-10-03T13:26:46.476Z,3.23
2022-10-03T13:29:24.574Z,3.50
2022-10-03T13:32:08.020Z,3.13
2022-10-03T13:34:49.137Z,3.40
2022-10-03T13:37:26.123Z,3.50
2022-10-03T13:39:56.351Z,3.40
2022-10-03T13:42:37.530Z,3.50
2022-10-03T13:45:14.453Z,4.40
2022-10-03T13:47:52.317Z,3.40
2022-10-03T13:50:29.141Z,3.30
2022-10-03T13:53:02.442Z,3.40
2022-10-03T13:55:42.910Z,3.00
2022-10-03T13:58:32.977Z,3.40
2022-10-03T14:01:39.264Z,3.20
2022-10-03T14:04:37.233Z,3.30
2022-10-03T14:07:13.660Z,3.30
2022-10-03T14:10:10.499Z,2.87
2022-10-03T14:12:55.903Z,3.00
2022-10-03T14:15:40.457Z,3.10
2022-10-03T14:18:20.469Z,3.00
2022-10-03T14:21:21.527Z,3.30
2022-10-03T14:23:58.081Z,3.00
2022-10-03T14:26:34.761Z,3.17
2022-10-03T14:29:11.910Z,3.20
2022-10-03T14:31:49.259Z,3.07
2022-10-03T14:34:29.457Z,3.00
2022-10-03T14:37:09.255Z,3.30
2022-10-03T14:39:46.214Z,3.20
2022-10-03T14:42:36.163Z,2.93
2022-10-03T14:45:09.985Z,3.60
2022-10-03T14:47:42.676Z,2.80
2022-10-03T14:50:17.677Z,2.80
2022-10-03T14:52:51.479Z,3.20
2022-10-03T14:55:29.944Z,3.53
2022-10-03T14:58:10.832Z,2.83
2022-10-03T15:00:44.317Z,3.30
2022-10-03T15:03:25.258Z,3.37
2022-10-03T15:06:21.038Z,3.60
2022-10-03T15:08:53.517Z,3.10
2022-10-03T15:11:30.694Z,3.10
2022-10-03T15:14:02.765Z,3.27
2022-10-03T15:16:36.071Z,3.53
2022-10-03T15:19:10.439Z,3.50
2022-10-03T15:21:43.422Z,4.70
2022-10-03T15:24:22.065Z,4.13
2022-10-03T15:27:01.465Z,3.30
2022-10-03T15:29:32.235Z,3.70
2022-10-03T15:32:01.354Z,3.63
2022-10-03T15:34:34.381Z,3.67
2022-10-03T15:37:08.196Z,2.90
2022-10-03T15:39:40.477Z,4.10
2022-10-03T15:42:24.257Z,3.80
2022-10-03T15:44:54.814Z,3.67
2022-10-03T15:47:24.898Z,4.10
2022-10-03T15:49:57.164Z,4.17
2022-10-03T15:52:34.415Z,3.90
2022-10-03T15:55:11.994Z,3.40
2022-10-03T15:57:46.709Z,3.50
2022-10-03T16:00:27.792Z,3.20
2022-10-03T16:03:06.327Z,3.07
2022-10-03T16:05:37.121Z,3.13
2022-10-03T16:08:11.414Z,3.13
2022-10-03T16:10:44.010Z,3.00
2022-10-03T16:13:28.242Z,2.77
2022-10-03T16:16:19.129Z,2.53
2022-10-03T16:19:22.672Z,2.97
2022-10-03T16:21:57.935Z,2.90
2022-10-03T16:24:36.922Z,2.50
2022-10-03T16:27:14.007Z,2.83
2022-10-03T16:29:50.697Z,3.00
2022-10-03T16:32:22.361Z,2.67
2022-10-03T16:34:51.721Z,2.50
2022-10-03T16:37:24.921Z,3.00
2022-10-03T16:40:03.869Z,2.87
2022-10-03T16:42:41.701Z,3.03
2022-10-03T16:45:25.493Z,2.90
2022-10-03T16:48:09.945Z,2.70
2022-10-03T16:50:46.500Z,2.30
2022-10-03T16:53:16.195Z,3.00
2022-10-03T16:55:49.657Z,3.30
2022-10-03T16:58:23.523Z,2.20
2022-10-03T17:01:22.052Z,2.20
2022-10-03T17:03:49.153Z,2.10
2022-10-03T17:06:22.768Z,2.10
2022-10-03T17:08:53.740Z,2.00
2022-10-03T17:11:26.365Z,2.40
2022-10-03T17:13:57.004Z,2.30
2022-10-03T17:16:37.548Z,2.30
2022-10-03T17:19:18.715Z,2.27
2022-10-03T17:21:54.805Z,2.33
2022-10-03T17:24:34.419Z,2.40
2022-10-03T17:27:09.561Z,2.30
2022-10-03T17:29:45.737Z,2.90
2022-10-03T17:32:23.460Z,2.40
2022-10-03T17:34:58.713Z,2.40
2022-10-03T17:37:57.099Z,2.73
2022-10-03T17:40:44.781Z,2.40
2022-10-03T17:43:22.910Z,2.50
2022-10-03T17:46:01.111Z,2.50
2022-10-03T17:48:38.943Z,2.37
2022-10-03T17:51:35.890Z,2.30
2022-10-03T17:54:07.331Z,2.30
2022-10-03T17:56:36.989Z,2.80
2022-10-03T17:59:13.966Z,2.37
2022-10-03T18:01:45.588Z,2.43
2022-10-03T18:04:19.959Z,2.20
2022-10-03T18:06:50.590Z,2.07
2022-10-03T18:09:40.935Z,2.37
2022-10-03T18:12:20.993Z,2.50
2022-10-03T18:15:08.647Z,2.50
2022-10-03T18:17:50.285Z,2.63
2022-10-03T18:20:35.798Z,2.00
2022-10-03T18:23:08.643Z,2.53
2022-10-03T18:26:20.690Z,2.60
2022-10-03T18:29:01.263Z,2.43
2022-10-03T18:31:34.234Z,2.30
2022-10-03T18:34:13.667Z,2.40
2022-10-03T18:36:49.411Z,2.40
2022-10-03T18:39:20.401Z,2.57
2022-10-03T18:41:52.199Z,2.43
2022-10-03T18:44:24.261Z,2.57
2022-10-03T18:46:59.385Z,2.87
2022-10-03T18:49:34.534Z,2.67
2022-10-03T18:52:11.808Z,2.60
2022-10-03T18:54:54.235Z,2.80
2022-10-03T18:57:29.820Z,2.70
2022-10-03T19:00:02.954Z,2.93
2022-10-03T19:02:37.028Z,2.77
2022-10-03T19:05:13.292Z,2.80
2022-10-03T19:07:51.528Z,2.40
2022-10-03T19:10:30.111Z,2.50
2022-10-03T19:13:05.892Z,3.30
2022-10-03T19:15:45.030Z,2.70
2022-10-03T19:18:25.631Z,2.50
2022-10-03T19:20:57.081Z,2.70
2022-10-03T19:23:30.986Z,2.67
2022-10-03T19:26:03.625Z,2.67
2022-10-03T19:28:35.043Z,2.40
2022-10-03T19:31:07.835Z,2.50
2022-10-03T19:33:43.908Z,2.20
2022-10-03T19:36:17.998Z,2.30
2022-10-03T19:38:49.089Z,2.60
2022-10-03T19:41:27.280Z,2.40
2022-10-03T19:43:57.114Z,2.93
2022-10-03T19:46:49.668Z,2.60
2022-10-03T19:49:41.600Z,2.20
2022-10-03T19:52:25.456Z,2.13
2022-10-03T19:55:01.815Z,2.40
2022-10-03T19:57:42.044Z,3.23
2022-10-03T20:00:23.867Z,2.00
2022-10-03T20:02:58.477Z,2.17
2022-10-03T20:05:33.047Z,2.60
2022-10-03T20:08:04.127Z,2.20
2022-10-03T20:10:47.027Z,2.10
2022-10-03T20:13:16.629Z,2.70
2022-10-03T20:15:47.942Z,2.53
2022-10-03T20:18:23.099Z,3.43
2022-10-03T20:20:54.420Z,2.30
2022-10-03T20:23:25.837Z,2.30
2022-10-03T20:26:04.302Z,2.30
2022-10-03T20:28:57.340Z,2.10
2022-10-03T20:31:27.557Z,2.10
2022-10-03T20:33:57.727Z,2.23
2022-10-03T20:36:29.135Z,2.43
2022-10-03T20:39:14.259Z,2.40
2022-10-03T20:41:58.162Z,2.60
2022-10-03T20:44:45.723Z,2.20
2022-10-03T20:47:22.949Z,2.33
2022-10-03T20:49:55.298Z,2.47
2022-10-03T20:52:26.806Z,2.40
2022-10-03T20:55:00.642Z,2.27
2022-10-03T20:57:36.734Z,2.60
2022-10-03T21:00:08.455Z,2.60
2022-10-03T21:02:43.153Z,2.60
2022-10-03T21:05:20.270Z,2.77
2022-10-03T21:07:52.486Z,2.80
2022-10-03T21:10:29.491Z,2.50
2022-10-03T21:13:02.245Z,2.40
2022-10-03T21:15:47.338Z,2.63
2022-10-03T21:18:22.895Z,2.63
2022-10-03T21:21:02.713Z,2.77
2022-10-03T21:23:35.762Z,2.83
2022-10-03T21:26:04.899Z,2.80
2022-10-03T21:28:36.845Z,2.80
2022-10-03T21:31:26.072Z,2.60
2022-10-03T21:34:01.318Z,2.50
2022-10-03T21:36:36.012Z,3.37
2022-10-03T21:39:18.689Z,2.80
2022-10-03T21:42:03.877Z,2.97
2022-10-03T21:44:58.981Z,2.80
2022-10-03T21:47:38.209Z,2.77
2022-10-03T21:50:14.195Z,2.70
2022-10-03T21:52:58.789Z,2.90
2022-10-03T21:55:53.254Z,2.80
2022-10-03T21:58:49.884Z,2.90
2022-10-03T22:01:30.816Z,2.40
2022-10-03T22:04:04.833Z,2.50
2022-10-03T22:06:39.391Z,2.60
2022-10-03T22:09:14.814Z,2.70
2022-10-03T22:11:50.137Z,2.50
2022-10-03T22:14:32.591Z,2.83
2022-10-03T22:17:11.126Z,3.00
2022-10-03T22:19:46.431Z,2.80
2022-10-03T22:22:28.230Z,2.93
2022-10-03T22:25:11.412Z,2.87
2022-10-03T22:27:48.374Z,3.10
2022-10-03T22:30:18.650Z,3.10
2022-10-03T22:32:59.366Z,2.83
2022-10-03T22:35:42.039Z,2.70
2022-10-03T22:38:10.441Z,2.87
2022-10-03T22:40:40.519Z,3.00
2022-10-03T22:43:11.629Z,2.80
2022-10-03T22:45:43.775Z,3.17
2022-10-03T22:48:18.458Z,2.80
2022-10-03T22:50:47.540Z,2.70
2022-10-03T22:53:19.272Z,2.90
2022-10-03T22:55:51.182Z,3.20
2022-10-03T22:58:21.261Z,2.70
2022-10-03T23:00:56.249Z,2.60
2022-10-03T23:03:30.951Z,2.70
2022-10-03T23:06:30.917Z,2.87
2022-10-03T23:09:09.721Z,2.97
2022-10-03T23:11:41.636Z,2.93
2022-10-03T23:14:16.424Z,2.87
2022-10-03T23:16:53.941Z,2.50
2022-10-03T23:19:46.887Z,2.80
2022-10-03T23:22:18.717Z,2.67
2022-10-03T23:24:51.860Z,3.10
2022-10-03T23:27:49.520Z,3.30
2022-10-03T23:30:53.300Z,3.00
2022-10-03T23:33:53.270Z,3.23
2022-10-03T23:36:25.666Z,3.30
2022-10-03T23:38:59.792Z,3.47
2022-10-03T23:41:45.042Z,3.23
2022-10-03T23:44:41.998Z,2.93
2022-10-03T23:47:15.906Z,2.67
2022-10-03T23:49:46.665Z,2.83
2022-10-03T23:52:21.091Z,3.00
2022-10-03T23:54:50.286Z,3.10
2022-10-03T23:57:21.074Z,3.03
2022-10-03T23:59:51.193Z,2.90
